Alvorada do Iguacu, Brazil
Current Conditions -  °F | °C
As of 10:00 AM on Monday 20 Oct 2014 (Local Time) from SBFI Reporting Station
Scattered Clouds Scattered Clouds  
Wind Chill: 75°   Ceiling: Unl
Heat Index: 75°   Visibility: 6mi
Dew Point: 66°   Wind: 7mph
Humidity: 73%   Direction: 120°ESE
Pressure: 30.03"   Gusts: NA
Location:  25.36°S, 54.5°W
Report Text: SBFI 201300Z 12006KT 9999 FEW015 SCT100 24/19 Q1017
Loading
Personal Weather Stations






























Interactive Weather Map
Tropical Storm Tracking
New forecast layout! Learn more

10-Day Weather Forecast

Advertisements
Track Severe Weather on mobile